Time;durP1;ratioP1;P1;durP2;ratioP2;P2;SDS_P1;SDS_P2;PMS_P1;PMS_P2;Temp;Humidity;BMP_temperature;BMP_pressure;BME280_temperature;BME280_humidity;BME280_pressure;Samples;Min_cycle;Max_cycle;Signal;HPM_P1;HPM_P2
2024/01/23 00:01:08;;;;;;;9.68;7.30;;;;;;;18.73;39.80;102037.56;5021953;28;20493;-58
2024/01/23 00:03:36;;;;;;;8.57;6.82;;;;;;;18.73;39.56;102028.66;5028848;28;20041;-59
2024/01/23 00:06:04;;;;;;;8.32;6.25;;;;;;;18.73;39.48;102029.50;5028206;28;20053;-59
2024/01/23 00:08:31;;;;;;;8.18;7.25;;;;;;;18.73;39.48;102032.19;5023261;28;20049;-58
2024/01/23 00:11:03;;;;;;;8.38;6.68;;;;;;;18.75;39.29;102042.81;5025757;28;20050;-57
2024/01/23 00:13:30;;;;;;;7.22;5.97;;;;;;;18.75;39.43;102035.63;5029472;28;20075;-58
2024/01/23 00:15:58;;;;;;;8.98;6.43;;;;;;;18.75;39.55;102021.34;5016564;28;20041;-58
2024/01/23 00:18:25;;;;;;;6.53;5.47;;;;;;;18.74;39.60;102020.50;5024356;28;20053;-58
2024/01/23 00:20:56;;;;;;;7.13;6.30;;;;;;;18.75;39.60;102024.88;5028192;28;20050;-58
2024/01/23 00:23:23;;;;;;;6.55;5.80;;;;;;;18.76;39.58;102033.81;5019607;28;20052;-57
2024/01/23 00:25:52;;;;;;;7.50;5.65;;;;;;;18.75;39.81;102032.06;5023931;28;20050;-57
2024/01/23 00:28:20;;;;;;;7.45;5.75;;;;;;;18.74;39.49;102027.69;5016558;28;20037;-58
2024/01/23 00:30:48;;;;;;;8.30;6.10;;;;;;;18.74;39.50;102028.53;5019943;28;20141;-57
2024/01/23 00:33:15;;;;;;;8.27;5.95;;;;;;;18.73;39.58;102032.19;5031396;28;20495;-57
2024/01/23 00:35:42;;;;;;;8.25;6.07;;;;;;;18.74;39.35;102049.13;5020441;28;20049;-57
2024/01/23 00:38:10;;;;;;;7.20;5.88;;;;;;;18.74;39.23;102051.81;5023779;28;20057;-58
2024/01/23 00:40:37;;;;;;;7.28;6.20;;;;;;;18.72;39.16;102032.28;5028065;28;20049;-58
2024/01/23 00:43:04;;;;;;;7.28;5.68;;;;;;;18.72;39.08;102037.66;5018936;28;20046;-58
2024/01/23 00:45:32;;;;;;;8.52;5.82;;;;;;;18.72;39.19;102043.03;5027877;28;20050;-58
2024/01/23 00:48:00;;;;;;;7.75;6.30;;;;;;;18.71;39.20;102042.13;5023892;28;20041;-57
2024/01/23 00:50:27;;;;;;;7.68;6.43;;;;;;;18.70;39.29;102031.53;5019829;28;20389;-57
2024/01/23 00:52:55;;;;;;;7.95;6.45;;;;;;;18.71;39.10;102046.66;5018326;28;20046;-57
2024/01/23 00:55:22;;;;;;;7.60;5.43;;;;;;;18.70;39.22;102036.88;5013908;28;20053;-57
2024/01/23 00:57:49;;;;;;;7.28;5.72;;;;;;;18.70;39.00;102024.31;5014046;28;20504;-58
2024/01/23 01:00:17;;;;;;;7.97;5.68;;;;;;;18.70;38.96;102012.75;5024991;28;20045;-58
2024/01/23 01:02:44;;;;;;;8.20;6.38;;;;;;;18.68;38.95;102025.38;5018194;28;20048;-58
2024/01/23 01:05:12;;;;;;;7.03;5.88;;;;;;;18.69;39.06;102053.91;5015156;28;20073;-58
2024/01/23 01:07:39;;;;;;;7.25;5.88;;;;;;;18.68;38.63;102054.88;5015785;28;20380;-58
2024/01/23 01:10:07;;;;;;;7.07;5.45;;;;;;;18.67;38.87;102062.03;5015061;28;20050;-58
2024/01/23 01:12:34;;;;;;;6.63;5.13;;;;;;;18.66;38.99;102060.31;5018141;28;20041;-58
2024/01/23 01:15:02;;;;;;;7.47;6.00;;;;;;;18.66;38.94;102041.53;5015565;28;20075;-58
2024/01/23 01:17:32;;;;;;;8.32;5.90;;;;;;;18.66;38.82;102038.88;5017420;28;20045;-58
2024/01/23 01:19:59;;;;;;;7.28;5.60;;;;;;;18.64;38.93;102043.47;5020025;28;20061;-58
2024/01/23 01:22:26;;;;;;;8.85;6.20;;;;;;;18.65;38.97;102050.56;5016212;28;20046;-58
2024/01/23 01:24:54;;;;;;;7.97;5.82;;;;;;;18.65;38.98;102057.75;5026728;28;20057;-58
2024/01/23 01:27:21;;;;;;;7.22;6.18;;;;;;;18.64;38.79;102062.25;5011226;28;20042;-58
2024/01/23 01:29:49;;;;;;;6.13;5.40;;;;;;;18.64;39.19;102059.56;5012000;28;20057;-58
2024/01/23 01:32:16;;;;;;;7.38;5.68;;;;;;;18.63;38.95;102063.19;5030215;28;20045;-58
2024/01/23 01:34:44;;;;;;;6.63;5.75;;;;;;;18.62;39.04;102045.38;5019136;28;20045;-58
2024/01/23 01:37:11;;;;;;;6.68;5.32;;;;;;;18.62;39.02;102050.75;5024598;28;20418;-58
2024/01/23 01:39:39;;;;;;;5.72;5.13;;;;;;;18.62;38.84;102055.25;5017169;28;20041;-58
2024/01/23 01:42:06;;;;;;;6.80;5.78;;;;;;;18.62;38.83;102052.56;5034396;28;20056;-59
2024/01/23 01:44:34;;;;;;;6.95;5.15;;;;;;;18.60;39.03;102041.94;5022967;28;20042;-59
2024/01/23 01:47:02;;;;;;;6.65;5.60;;;;;;;18.60;38.95;102033.91;5027584;28;20057;-59
2024/01/23 01:49:29;;;;;;;7.63;5.78;;;;;;;18.59;38.88;102018.75;5030814;28;20049;-58
2024/01/23 01:51:58;;;;;;;7.40;6.05;;;;;;;18.60;39.05;102025.00;5021372;28;20054;-58
2024/01/23 01:54:27;;;;;;;7.70;6.38;;;;;;;18.60;38.99;102033.06;5030322;28;20053;-58
2024/01/23 01:56:56;;;;;;;6.70;5.78;;;;;;;18.59;38.94;102042.88;5025571;28;20523;-58
2024/01/23 01:59:23;;;;;;;6.90;6.10;;;;;;;18.58;39.03;102035.81;5021772;28;20046;-58
2024/01/23 02:01:50;;;;;;;6.97;5.75;;;;;;;18.58;39.01;102037.63;5018806;28;20061;-58
2024/01/23 02:04:18;;;;;;;6.88;5.72;;;;;;;18.57;38.92;102034.09;5029479;28;20049;-59
2024/01/23 02:06:46;;;;;;;7.70;5.63;;;;;;;18.57;38.90;102033.25;5026934;28;20045;-59
2024/01/23 02:09:14;;;;;;;7.10;5.40;;;;;;;18.57;38.92;102039.47;5034833;28;20053;-58
2024/01/23 02:11:58;;;;;;;7.55;5.70;;;;;;;18.56;38.94;102036.88;5017344;28;20395;-58
2024/01/23 02:14:26;;;;;;;8.32;5.93;;;;;;;18.54;38.74;102037.81;5025682;28;20045;-58
2024/01/23 02:16:54;;;;;;;6.68;4.80;;;;;;;18.55;38.81;102046.72;5022736;28;20050;-59
2024/01/23 02:19:22;;;;;;;7.18;5.32;;;;;;;18.55;38.82;102060.13;5033182;28;20503;-58
2024/01/23 02:21:49;;;;;;;7.38;5.75;;;;;;;18.54;38.93;102050.38;5019056;28;20397;-59
2024/01/23 02:24:16;;;;;;;7.22;5.43;;;;;;;18.54;38.88;102035.13;5026573;28;20046;-58
2024/01/23 02:26:44;;;;;;;5.75;4.97;;;;;;;18.55;38.88;102036.00;5017607;28;20045;-58
2024/01/23 02:29:11;;;;;;;6.47;5.15;;;;;;;18.54;38.67;102021.72;5013323;28;20052;-59
2024/01/23 02:31:38;;;;;;;6.95;5.88;;;;;;;18.55;38.83;102019.91;5018765;28;20049;-58
2024/01/23 02:34:06;;;;;;;6.43;5.22;;;;;;;18.55;38.86;102030.63;5026779;28;20050;-58
2024/01/23 02:36:39;;;;;;;6.72;5.63;;;;;;;18.54;38.78;102028.91;5016849;28;20408;-58
2024/01/23 02:39:07;;;;;;;8.25;5.75;;;;;;;18.53;38.87;102028.06;5025766;28;20057;-58
2024/01/23 02:41:34;;;;;;;7.97;5.88;;;;;;;18.53;38.87;102035.25;5016640;28;20057;-58
2024/01/23 02:44:02;;;;;;;8.40;5.97;;;;;;;18.53;38.91;102040.63;5016892;28;20046;-59
2024/01/23 02:46:29;;;;;;;7.18;5.28;;;;;;;18.53;38.85;102038.78;5016502;28;20042;-58
2024/01/23 02:48:56;;;;;;;6.70;5.18;;;;;;;18.53;38.78;102044.16;5032679;28;20407;-58
2024/01/23 02:51:24;;;;;;;7.03;5.90;;;;;;;18.52;38.74;102055.84;5016672;28;20050;-58
2024/01/23 02:53:51;;;;;;;7.13;6.00;;;;;;;18.53;38.82;102048.66;5023559;28;20076;-58
2024/01/23 02:56:18;;;;;;;6.38;4.95;;;;;;;18.53;38.75;102045.97;5031254;28;20056;-59
2024/01/23 02:58:46;;;;;;;6.95;5.47;;;;;;;18.52;38.71;102046.94;5031366;28;20392;-58
2024/01/23 03:01:13;;;;;;;7.38;5.50;;;;;;;18.51;38.84;102054.13;5020740;28;20056;-59
2024/01/23 03:03:40;;;;;;;6.38;5.18;;;;;;;18.51;38.73;102072.91;5025176;28;20050;-58
2024/01/23 03:06:08;;;;;;;6.88;5.00;;;;;;;18.50;38.72;102064.94;5028868;28;20041;-59
2024/01/23 03:08:35;;;;;;;9.40;5.53;;;;;;;18.50;38.69;102075.66;5019702;28;20053;-58
2024/01/23 03:11:03;;;;;;;5.93;5.32;;;;;;;18.51;38.81;102082.75;5029026;28;20052;-58
2024/01/23 03:13:30;;;;;;;6.10;4.70;;;;;;;18.50;38.80;102089.94;5024862;28;20053;-58
2024/01/23 03:15:58;;;;;;;6.50;5.25;;;;;;;18.51;38.81;102083.63;5021118;28;20137;-58
2024/01/23 03:18:25;;;;;;;6.30;5.50;;;;;;;18.50;38.75;102073.84;5032397;28;20041;-58
2024/01/23 03:20:53;;;;;;;6.93;4.93;;;;;;;18.50;38.76;102081.03;5020545;28;20408;-58
2024/01/23 03:23:20;;;;;;;7.03;5.35;;;;;;;18.49;38.72;102088.22;5025201;28;20049;-58
2024/01/23 03:25:48;;;;;;;7.00;5.30;;;;;;;18.49;38.74;102088.22;5028884;28;20049;-58
2024/01/23 03:28:15;;;;;;;6.57;5.60;;;;;;;18.49;38.82;102084.66;5022659;28;20049;-58
2024/01/23 03:30:42;;;;;;;6.32;5.15;;;;;;;18.49;38.87;102079.31;5012545;28;20058;-59
2024/01/23 03:33:10;;;;;;;7.20;5.22;;;;;;;18.49;38.61;102084.66;5015445;28;20050;-58
2024/01/23 03:35:37;;;;;;;5.70;5.10;;;;;;;18.48;38.72;102069.53;5026288;28;20052;-58
2024/01/23 03:38:04;;;;;;;6.32;4.95;;;;;;;18.48;38.81;102070.41;5030608;28;20042;-58
2024/01/23 03:40:32;;;;;;;7.28;5.65;;;;;;;18.47;38.67;102079.41;5017509;28;20512;-58
2024/01/23 03:42:59;;;;;;;6.28;5.35;;;;;;;18.48;38.73;102082.97;5025061;28;20050;-59
2024/01/23 03:45:26;;;;;;;7.82;4.82;;;;;;;18.48;38.70;102091.00;5015063;28;20042;-58
2024/01/23 03:47:54;;;;;;;9.30;6.07;;;;;;;18.47;38.66;102105.34;5017164;28;20042;-58
2024/01/23 03:50:21;;;;;;;6.03;4.95;;;;;;;18.46;38.57;102112.53;5015552;28;20511;-58
2024/01/23 03:52:49;;;;;;;6.32;5.20;;;;;;;18.46;38.73;102117.88;5015609;28;20416;-58
2024/01/23 03:55:16;;;;;;;6.70;5.10;;;;;;;18.48;38.71;102125.84;5015030;28;20496;-58
2024/01/23 03:57:44;;;;;;;6.25;5.20;;;;;;;18.47;38.59;102134.84;5016780;28;20045;-58
2024/01/23 04:00:13;;;;;;;6.45;5.50;;;;;;;18.46;38.72;102141.16;5014716;28;20072;-58
2024/01/23 04:02:41;;;;;;;6.90;5.45;;;;;;;18.47;38.64;102134.84;5015329;28;20057;-58
2024/01/23 04:05:09;;;;;;;7.20;5.65;;;;;;;18.46;38.74;102133.13;5014977;28;20428;-58
2024/01/23 04:07:36;;;;;;;6.30;5.28;;;;;;;18.46;38.57;102139.34;5017099;28;20114;-58
2024/01/23 04:10:04;;;;;;;7.28;4.55;;;;;;;18.46;38.74;102133.13;5014885;28;20062;-58
2024/01/23 04:12:32;;;;;;;7.28;5.55;;;;;;;18.47;38.68;102151.81;5020310;28;20045;-58
2024/01/23 04:14:59;;;;;;;6.70;5.18;;;;;;;18.46;38.83;102154.56;5030849;28;20510;-58
2024/01/23 04:17:28;;;;;;;5.80;5.00;;;;;;;18.47;38.68;102158.97;5024565;28;20037;-58
2024/01/23 04:19:56;;;;;;;6.28;4.80;;;;;;;18.46;38.84;102152.75;5014672;28;20054;-59
2024/01/23 04:22:23;;;;;;;6.22;4.90;;;;;;;18.46;39.00;102152.75;5014404;28;20515;-58
2024/01/23 04:24:51;;;;;;;5.78;4.65;;;;;;;18.46;38.96;102150.06;5015204;28;20050;-59
2024/01/23 04:27:18;;;;;;;5.78;4.60;;;;;;;18.47;38.91;102145.56;5016620;28;20427;-58
2024/01/23 04:29:45;;;;;;;6.28;4.90;;;;;;;18.46;38.87;102150.06;5012299;28;20053;-58
2024/01/23 04:32:13;;;;;;;6.70;4.93;;;;;;;18.47;39.03;102142.88;5012956;28;20054;-58
2024/01/23 04:34:40;;;;;;;6.13;5.13;;;;;;;18.47;38.77;102148.25;5027422;28;20061;-58
2024/01/23 04:37:08;;;;;;;5.13;4.38;;;;;;;18.47;38.94;102142.88;5016518;28;20048;-58
2024/01/23 04:39:35;;;;;;;5.80;5.15;;;;;;;18.46;38.87;102147.38;5024697;28;20046;-57
2024/01/23 04:42:03;;;;;;;6.20;5.18;;;;;;;18.47;39.04;102156.28;5023756;28;20042;-58
2024/01/23 04:44:30;;;;;;;6.78;5.05;;;;;;;18.45;38.88;102163.59;5026958;28;20045;-58
2024/01/23 04:46:58;;;;;;;5.97;4.78;;;;;;;18.46;39.02;102163.47;5017431;28;20042;-58
2024/01/23 04:49:27;;;;;;;6.47;5.13;;;;;;;18.46;39.16;102167.97;5027627;28;20041;-58
2024/01/23 04:51:55;;;;;;;6.28;4.72;;;;;;;18.45;39.00;102175.16;5021757;28;20057;-57
2024/01/23 04:54:23;;;;;;;7.43;5.40;;;;;;;18.45;38.97;102158.22;5019040;28;20053;-58
2024/01/23 04:56:50;;;;;;;6.20;4.75;;;;;;;18.45;39.06;102159.06;5029092;28;20041;-58
2024/01/23 04:59:19;;;;;;;6.60;5.30;;;;;;;18.44;39.18;102148.47;5027654;28;20057;-57
2024/01/23 05:01:46;;;;;;;5.93;4.93;;;;;;;18.45;39.11;102148.34;5023327;28;20480;-57
2024/01/23 05:04:13;;;;;;;6.32;5.25;;;;;;;18.45;39.09;102160.91;5018439;28;20054;-58
2024/01/23 05:06:41;;;;;;;8.80;5.15;;;;;;;18.44;39.05;102159.19;5029901;28;20069;-58
2024/01/23 05:09:09;;;;;;;6.35;4.82;;;;;;;18.44;38.91;102170.75;5019288;28;20046;-57
2024/01/23 05:11:37;;;;;;;6.93;4.88;;;;;;;18.44;38.88;102168.09;5022635;28;20404;-57
2024/01/23 05:14:04;;;;;;;6.10;4.78;;;;;;;18.44;38.98;102161.88;5031121;28;20049;-57
2024/01/23 05:16:32;;;;;;;6.95;4.95;;;;;;;18.44;38.96;102161.88;5021002;28;20045;-57
2024/01/23 05:18:59;;;;;;;4.90;4.18;;;;;;;18.44;38.92;102172.59;5030322;28;20045;-59
2024/01/23 05:21:27;;;;;;;5.60;4.50;;;;;;;18.43;38.97;102182.47;5026659;28;20056;-58
2024/01/23 05:23:54;;;;;;;5.55;4.68;;;;;;;18.43;38.78;102181.56;5021175;28;20061;-58
2024/01/23 05:26:21;;;;;;;4.85;4.13;;;;;;;18.42;38.77;102190.56;5033068;28;20049;-58
2024/01/23 05:28:49;;;;;;;6.15;4.88;;;;;;;18.42;38.77;102186.06;5022264;28;20487;-58
2024/01/23 05:31:16;;;;;;;6.07;4.95;;;;;;;18.42;38.86;102187.88;5024092;28;20069;-58
2024/01/23 05:33:44;;;;;;;6.07;4.68;;;;;;;18.41;38.89;102195.06;5015402;28;20046;-58
2024/01/23 05:36:14;;;;;;;5.30;4.13;;;;;;;18.42;38.86;102201.31;5032808;28;20049;-58
2024/01/23 05:38:41;;;;;;;7.55;5.03;;;;;;;18.41;38.68;102200.44;5022598;28;20046;-56
2024/01/23 05:41:09;;;;;;;7.20;4.78;;;;;;;18.42;38.71;102199.47;5025663;28;20412;-57
2024/01/23 05:43:37;;;;;;;5.85;5.15;;;;;;;18.42;38.83;102215.56;5030527;28;20387;-58
2024/01/23 05:46:04;;;;;;;5.50;4.45;;;;;;;18.43;38.97;102219.09;5020648;28;20049;-56
2024/01/23 05:48:31;;;;;;;5.38;4.40;;;;;;;18.42;38.81;102226.28;5029661;28;20042;-58
2024/01/23 05:50:59;;;;;;;6.40;4.78;;;;;;;18.43;38.96;102227.16;5026227;28;20443;-58
2024/01/23 05:53:26;;;;;;;5.20;3.88;;;;;;;18.44;38.97;102236.94;5021684;28;20497;-58
2024/01/23 05:55:54;;;;;;;5.82;4.28;;;;;;;18.44;39.10;102240.47;5032419;28;20459;-58
2024/01/23 05:58:21;;;;;;;6.68;4.85;;;;;;;18.43;39.09;102235.19;5021811;28;20041;-58
2024/01/23 06:00:48;;;;;;;5.97;4.55;;;;;;;18.45;39.05;102238.66;5025800;28;20049;-58
2024/01/23 06:03:16;;;;;;;6.13;4.38;;;;;;;18.46;39.03;102237.69;5029909;28;20056;-58
2024/01/23 06:05:43;;;;;;;6.22;4.50;;;;;;;18.45;38.93;102234.16;5018646;28;20057;-58
2024/01/23 06:08:12;;;;;;;6.53;4.45;;;;;;;18.45;39.24;102228.78;5029931;28;20511;-57
2024/01/23 06:10:39;;;;;;;6.50;4.50;;;;;;;18.46;38.98;102235.00;5026271;28;20426;-56
2024/01/23 06:13:06;;;;;;;5.85;4.40;;;;;;;18.44;38.89;102242.31;5028449;28;20072;-56
2024/01/23 06:15:34;;;;;;;5.70;4.28;;;;;;;18.43;38.67;102252.19;5032077;28;20053;-57
2024/01/23 06:18:02;;;;;;;6.55;4.28;;;;;;;18.43;38.85;102243.25;5020392;28;20038;-58
2024/01/23 06:20:30;;;;;;;5.80;4.18;;;;;;;18.43;38.66;102246.81;5024652;28;20057;-59
2024/01/23 06:22:57;;;;;;;6.28;4.32;;;;;;;18.43;38.91;102243.25;5016136;28;20076;-59
2024/01/23 06:25:25;;;;;;;7.00;4.40;;;;;;;18.42;38.76;102242.38;5017245;28;20403;-59
2024/01/23 06:27:52;;;;;;;5.78;4.32;;;;;;;18.41;38.83;102232.63;5018861;28;20042;-58
2024/01/23 06:30:19;;;;;;;5.38;4.18;;;;;;;18.42;38.85;102241.53;5024918;28;20492;-57
2024/01/23 06:32:47;;;;;;;5.70;4.07;;;;;;;18.41;38.96;102237.97;5014274;28;20050;-58
2024/01/23 06:35:14;;;;;;;4.82;3.90;;;;;;;18.40;38.82;102240.75;5016867;28;20212;-57
2024/01/23 06:37:42;;;;;;;5.75;4.13;;;;;;;18.40;38.80;102246.13;5033609;28;20052;-56
2024/01/23 06:40:10;;;;;;;5.05;3.72;;;;;;;18.40;38.83;102251.50;5026332;28;20484;-57
2024/01/23 06:42:38;;;;;;;6.00;4.15;;;;;;;18.40;38.90;102249.66;5020645;28;20129;-56
2024/01/23 06:45:06;;;;;;;4.53;3.67;;;;;;;18.41;38.84;102248.69;5031584;28;20061;-55
2024/01/23 06:47:34;;;;;;;4.82;3.67;;;;;;;18.39;38.95;102256.00;5019946;28;20411;-58
2024/01/23 06:50:01;;;;;;;5.60;4.65;;;;;;;18.40;38.94;102259.53;5024490;28;20057;-59
2024/01/23 06:52:29;;;;;;;5.32;3.97;;;;;;;18.38;38.95;102258.75;5029272;28;20385;-59
2024/01/23 06:54:57;;;;;;;5.07;3.92;;;;;;;18.39;38.84;102258.66;5018486;28;20072;-56
2024/01/23 06:57:24;;;;;;;5.25;4.03;;;;;;;18.38;38.85;102251.56;5028142;28;20053;-58
2024/01/23 06:59:52;;;;;;;4.15;3.55;;;;;;;18.39;38.84;102258.66;5024468;28;20048;-57
2024/01/23 07:02:20;;;;;;;5.88;3.97;;;;;;;18.39;38.78;102268.50;5019613;28;20049;-58
2024/01/23 07:04:47;;;;;;;4.22;3.28;;;;;;;18.39;38.85;102256.00;5031264;28;20045;-58
2024/01/23 07:07:14;;;;;;;5.55;4.32;;;;;;;18.39;38.87;102261.34;5021960;28;20049;-57
2024/01/23 07:09:42;;;;;;;5.20;4.13;;;;;;;18.40;38.90;102270.25;5023618;28;20404;-58
2024/01/23 07:12:09;;;;;;;5.40;4.22;;;;;;;18.40;38.91;102272.94;5029150;28;20049;-58
2024/01/23 07:14:37;;;;;;;5.13;3.72;;;;;;;18.39;38.92;102266.72;5018267;28;20393;-59
2024/01/23 07:17:04;;;;;;;6.57;4.38;;;;;;;18.40;38.83;102262.22;5027766;28;20046;-56
2024/01/23 07:19:31;;;;;;;5.30;3.75;;;;;;;18.40;38.77;102260.41;5022018;28;20049;-58
2024/01/23 07:21:59;;;;;;;5.60;4.18;;;;;;;18.39;38.85;102261.34;5028615;28;20399;-59
2024/01/23 07:24:27;;;;;;;4.47;3.53;;;;;;;18.39;38.93;102265.81;5017756;28;20053;-58
2024/01/23 07:26:56;;;;;;;4.03;3.58;;;;;;;18.41;38.93;102274.66;5026481;28;20045;-58
2024/01/23 07:29:23;;;;;;;5.10;3.80;;;;;;;18.40;39.10;102273.81;5024435;28;20048;-57
2024/01/23 07:31:51;;;;;;;6.25;3.92;;;;;;;18.40;39.01;102267.56;5017016;28;20049;-57
2024/01/23 07:34:19;;;;;;;5.43;4.05;;;;;;;18.40;38.97;102271.13;5011698;28;20053;-56
2024/01/23 07:36:46;;;;;;;7.35;4.43;;;;;;;18.41;39.10;102272.84;5014044;28;20042;-58
2024/01/23 07:39:14;;;;;;;5.03;3.58;;;;;;;18.40;39.19;102271.13;5014001;28;20038;-58
2024/01/23 07:41:43;;;;;;;4.70;3.35;;;;;;;18.42;39.24;102295.16;5027906;28;20045;-58
2024/01/23 07:44:10;;;;;;;6.15;4.28;;;;;;;18.43;39.12;102294.19;5014593;28;20049;-59
2024/01/23 07:46:38;;;;;;;5.93;3.70;;;;;;;18.44;39.17;102295.94;5018938;28;20057;-60
2024/01/23 07:49:05;;;;;;;5.88;3.47;;;;;;;18.44;39.15;102298.63;5031964;28;20041;-59
2024/01/23 07:51:49;;;;;;;5.00;3.70;;;;;;;18.43;39.19;102297.75;5018738;28;20388;-59
2024/01/23 07:54:17;;;;;;;4.07;3.13;;;;;;;18.44;39.26;102306.66;5019159;28;20042;-59
2024/01/23 07:56:45;;;;;;;7.30;3.75;;;;;;;18.44;39.10;102295.94;5024628;28;20052;-60
2024/01/23 07:59:12;;;;;;;5.53;4.15;;;;;;;18.42;39.18;102297.81;5014018;28;20428;-59
2024/01/23 08:01:39;;;;;;;4.60;3.20;;;;;;;18.43;39.12;102297.75;5014884;28;20061;-57
2024/01/23 08:04:07;;;;;;;4.70;3.40;;;;;;;18.43;39.07;102294.19;5013916;28;20049;-57
2024/01/23 08:06:34;;;;;;;5.57;4.07;;;;;;;18.42;39.16;102296.00;5013873;28;20042;-58
2024/01/23 08:09:04;;;;;;;5.57;3.67;;;;;;;18.43;39.19;102299.53;5013816;28;20064;-57
2024/01/23 08:11:32;;;;;;;7.95;3.83;;;;;;;18.45;39.36;102300.34;5014531;28;20500;-57
2024/01/23 08:13:59;;;;;;;4.93;3.38;;;;;;;18.45;39.45;102308.38;5014422;28;20061;-59
2024/01/23 08:16:27;;;;;;;4.90;3.67;;;;;;;18.46;39.64;102328.88;5020996;28;20057;-60
2024/01/23 08:18:54;;;;;;;8.15;4.40;;;;;;;18.47;39.68;102334.16;5031932;28;20050;-56
2024/01/23 08:21:22;;;;;;;5.07;3.42;;;;;;;18.47;39.67;102334.16;5030209;28;20053;-56
2024/01/23 08:23:49;;;;;;;4.63;3.65;;;;;;;18.50;39.73;102346.50;5031608;28;20041;-57
2024/01/23 08:26:17;;;;;;;5.75;3.67;;;;;;;18.50;39.66;102344.69;5023339;28;20057;-58
2024/01/23 08:28:56;;;;;;;6.32;4.20;;;;;;;18.52;39.56;102356.22;5013659;28;20416;-61
2024/01/23 08:31:23;;;;;;;5.97;3.92;;;;;;;18.54;39.65;102364.16;5013988;28;20064;-61
2024/01/23 08:33:51;;;;;;;6.40;4.25;;;;;;;18.56;39.59;102356.03;5025144;28;20041;-61
2024/01/23 08:36:19;;;;;;;7.82;4.03;;;;;;;18.57;39.41;102363.97;5021061;28;20440;-61
2024/01/23 08:38:47;;;;;;;8.18;4.32;;;;;;;18.59;39.43;102369.25;5028141;28;20407;-59
2024/01/23 08:41:14;;;;;;;5.07;3.50;;;;;;;18.60;39.26;102361.13;5014194;28;20397;-59
2024/01/23 08:43:41;;;;;;;5.03;3.28;;;;;;;18.61;39.39;102360.16;5013323;28;20057;-59
2024/01/23 08:46:09;;;;;;;4.80;3.60;;;;;;;18.64;39.27;102383.28;5014626;28;20054;-59
2024/01/23 08:48:36;;;;;;;4.78;3.20;;;;;;;18.64;39.25;102380.59;5017402;28;20053;-59
2024/01/23 08:51:04;;;;;;;6.65;3.97;;;;;;;18.65;39.30;102385.84;5031998;28;20045;-59
2024/01/23 08:53:33;;;;;;;6.03;4.47;;;;;;;18.65;38.90;102388.53;5023357;28;20060;-61
2024/01/23 08:56:00;;;;;;;6.47;4.43;;;;;;;18.68;38.69;102398.22;5025630;28;20443;-60
2024/01/23 08:58:28;;;;;;;7.75;6.38;;;;;;;18.67;37.96;102404.53;5031190;28;20392;-59
2024/01/23 09:00:55;;;;;;;9.73;8.55;;;;;;;18.59;36.70;102401.44;5032684;28;20105;-59
2024/01/23 09:03:22;;;;;;;13.02;10.98;;;;;;;18.49;35.77;102409.16;5016836;28;20049;-58
2024/01/23 09:05:50;;;;;;;15.85;13.70;;;;;;;18.36;34.89;102409.00;5017075;28;20046;-58
2024/01/23 09:08:17;;;;;;;15.68;13.32;;;;;;;18.22;34.29;102407.06;5017474;28;20066;-58
2024/01/23 09:10:45;;;;;;;14.02;12.00;;;;;;;18.12;34.17;102392.47;5018207;28;20064;-58
2024/01/23 09:13:12;;;;;;;14.32;12.90;;;;;;;18.00;33.95;102394.03;5029211;28;20053;-57
2024/01/23 09:15:40;;;;;;;12.98;11.25;;;;;;;18.01;34.23;102402.91;5016532;28;20075;-59
2024/01/23 09:18:07;;;;;;;10.73;9.02;;;;;;;18.06;35.57;102402.66;5016936;28;20054;-59
2024/01/23 09:20:35;;;;;;;8.52;7.45;;;;;;;18.10;35.95;102409.56;5021200;28;20041;-58
2024/01/23 09:23:02;;;;;;;7.78;6.97;;;;;;;18.16;36.39;102422.66;5029191;28;20050;-58
2024/01/23 09:25:29;;;;;;;7.82;6.15;;;;;;;18.22;36.88;102425.84;5017193;28;20056;-59
2024/01/23 09:27:57;;;;;;;7.47;5.80;;;;;;;18.27;36.93;102415.75;5016771;28;20041;-59
2024/01/23 09:30:25;;;;;;;7.55;6.72;;;;;;;18.32;37.16;102410.13;5017309;28;20079;-59
2024/01/23 09:32:57;;;;;;;9.98;6.35;;;;;;;18.36;37.01;102413.50;5017079;28;20050;-59
2024/01/23 09:35:30;;;;;;;7.63;5.55;;;;;;;18.39;37.22;102410.63;5016708;28;20053;-59
2024/01/23 09:37:58;;;;;;;7.82;6.30;;;;;;;18.43;37.13;102422.91;5017110;28;20081;-59
2024/01/23 09:40:25;;;;;;;7.72;5.43;;;;;;;18.45;37.23;102415.66;5016366;28;20038;-59
2024/01/23 09:42:56;;;;;;;8.48;5.63;;;;;;;18.46;37.31;102402.13;5016951;28;20055;-59
2024/01/23 09:45:28;;;;;;;6.45;5.50;;;;;;;18.49;37.21;102412.69;5016679;28;20057;-59
2024/01/23 09:47:57;;;;;;;6.80;5.20;;;;;;;18.51;37.15;102415.28;5016942;28;20057;-61
2024/01/23 09:50:27;;;;;;;7.00;5.80;;;;;;;18.54;37.33;102425.84;5016408;28;20507;-62
2024/01/23 09:52:58;;;;;;;6.25;5.18;;;;;;;18.56;37.28;102434.69;5016652;28;20065;-62
2024/01/23 09:55:25;;;;;;;7.45;5.05;;;;;;;18.57;37.35;102420.31;5016747;28;20053;-62
2024/01/23 09:57:53;;;;;;;6.32;5.05;;;;;;;18.59;37.38;102414.84;5015994;28;20052;-59
2024/01/23 10:00:20;;;;;;;5.30;4.78;;;;;;;18.59;37.45;102421.06;5016013;28;20042;-59
2024/01/23 10:02:52;;;;;;;6.13;4.38;;;;;;;18.60;37.32;102430.88;5016196;28;20050;-59
2024/01/23 10:05:21;;;;;;;7.15;5.00;;;;;;;18.61;37.33;102431.72;5028034;28;20046;-60
2024/01/23 10:07:50;;;;;;;6.28;5.03;;;;;;;18.61;37.27;102423.69;5015916;28;20046;-62
2024/01/23 10:10:18;;;;;;;5.82;5.07;;;;;;;18.62;37.41;102418.22;5015988;28;20053;-61
2024/01/23 10:12:49;;;;;;;6.38;4.85;;;;;;;18.63;37.39;102413.72;5016114;28;20060;-61
2024/01/23 10:15:18;;;;;;;5.95;4.88;;;;;;;18.63;37.46;102400.31;5016381;28;20042;-61
2024/01/23 10:17:47;;;;;;;5.68;4.68;;;;;;;18.65;37.45;102403.78;5016129;28;20046;-61
2024/01/23 10:20:16;;;;;;;5.45;4.35;;;;;;;18.65;37.65;102391.22;5023599;28;20056;-61
2024/01/23 10:22:45;;;;;;;6.10;4.55;;;;;;;18.66;37.49;102402.81;5022269;28;20046;-61
2024/01/23 10:25:20;;;;;;;5.57;4.57;;;;;;;18.66;37.59;102403.66;5016216;28;20045;-62
2024/01/23 10:27:53;;;;;;;5.28;4.45;;;;;;;18.67;37.59;102404.53;5016244;28;20129;-61
2024/01/23 10:30:20;;;;;;;4.30;3.90;;;;;;;18.68;37.61;102403.59;5019873;28;20050;-60
2024/01/23 10:32:48;;;;;;;5.50;4.63;;;;;;;18.69;37.79;102403.50;5033982;28;20507;-59
2024/01/23 10:35:16;;;;;;;5.40;4.55;;;;;;;18.70;38.21;102399.88;5016485;28;20415;-60
2024/01/23 10:37:44;;;;;;;6.15;5.15;;;;;;;18.69;39.61;102398.13;5021767;28;20050;-58
2024/01/23 10:40:13;;;;;;;7.18;4.88;;;;;;;18.65;41.17;102399.25;5023597;28;20071;-59
2024/01/23 10:42:42;;;;;;;5.35;4.18;;;;;;;18.62;42.51;102395.91;5015788;28;20045;-59
2024/01/23 10:45:16;;;;;;;5.53;4.40;;;;;;;18.58;43.78;102400.56;5015842;28;20061;-59
2024/01/23 10:47:45;;;;;;;5.90;4.05;;;;;;;18.56;44.72;102405.16;5015308;28;20504;-59
2024/01/23 10:50:14;;;;;;;5.32;4.40;;;;;;;18.52;45.40;102395.56;5015471;28;20419;-58
2024/01/23 10:52:48;;;;;;;6.45;4.20;;;;;;;18.49;46.06;102401.97;5016052;28;20046;-58
2024/01/23 10:55:23;;;;;;;4.53;3.70;;;;;;;18.49;46.58;102407.34;5021093;28;20052;-58
2024/01/23 10:58:02;;;;;;;7.50;4.43;;;;;;;18.47;46.99;102395.84;5034041;28;20049;-60
2024/01/23 11:00:38;;;;;;;5.60;4.18;;;;;;;18.47;47.19;102400.31;5017039;28;20058;-60
2024/01/23 11:03:12;;;;;;;5.03;4.15;;;;;;;18.47;47.42;102405.69;5019750;28;20048;-61
2024/01/23 11:05:54;;;;;;;5.38;4.00;;;;;;;18.46;47.47;102398.59;5024139;28;20045;-59
2024/01/23 11:08:27;;;;;;;5.82;3.97;;;;;;;18.45;47.78;102408.47;5030822;28;20050;-58
2024/01/23 11:11:20;;;;;;;4.00;3.55;;;;;;;18.44;47.92;102409.41;5017727;28;20057;-58
2024/01/23 11:13:58;;;;;;;5.43;4.00;;;;;;;18.43;47.84;102405.03;5020610;28;20069;-58
2024/01/23 11:16:28;;;;;;;4.78;4.05;;;;;;;18.44;48.00;102413.94;5015177;28;20550;-58
2024/01/23 11:18:59;;;;;;;5.07;3.88;;;;;;;18.42;48.14;102405.94;5016041;28;20062;-58
2024/01/23 11:21:29;;;;;;;6.25;3.97;;;;;;;18.42;48.10;102410.44;5023645;28;20427;-58
2024/01/23 11:24:02;;;;;;;6.75;4.25;;;;;;;18.42;48.07;102400.59;5028155;28;20049;-58
2024/01/23 11:26:31;;;;;;;4.65;3.63;;;;;;;18.42;48.12;102389.84;5029996;28;20061;-58
2024/01/23 11:29:04;;;;;;;5.15;3.70;;;;;;;18.43;47.92;102393.41;5022166;28;20061;-58